Time;durP1;ratioP1;P1;durP2;ratioP2;P2;SDS_P1;SDS_P2;PMS_P1;PMS_P2;Temp;Humidity;BMP_temperature;BMP_pressure;BME280_temperature;BME280_humidity;BME280_pressure;Samples;Min_cycle;Max_cycle;Signal;HPM_P1;HPM_P2
2023/07/06 00:01:39;;;;;;;10.98;6.55;;;13.40;99.90;;;;;;5101616;28;20066;-57
2023/07/06 00:04:05;;;;;;;8.63;6.13;;;13.30;99.90;;;;;;5097774;28;20040;-56
2023/07/06 00:06:32;;;;;;;10.35;6.22;;;13.30;99.90;;;;;;5100484;28;20055;-57
2023/07/06 00:08:59;;;;;;;8.30;5.93;;;13.30;99.90;;;;;;5100739;28;20127;-56
2023/07/06 00:11:32;;;;;;;9.60;5.70;;;13.30;99.90;;;;;;5098714;28;20040;-56
2023/07/06 00:13:57;;;;;;;7.55;5.90;;;13.30;99.90;;;;;;5101290;28;20036;-57
2023/07/06 00:16:23;;;;;;;8.82;5.88;;;13.20;99.90;;;;;;5097191;28;20086;-57
2023/07/06 00:18:49;;;;;;;9.63;5.90;;;13.20;99.90;;;;;;5101395;28;20048;-56
2023/07/06 00:21:14;;;;;;;9.52;6.38;;;13.20;99.90;;;;;;5097960;28;20032;-56
2023/07/06 00:23:43;;;;;;;12.60;5.65;;;13.10;99.90;;;;;;5082273;28;20044;-56
2023/07/06 00:26:10;;;;;;;10.00;6.35;;;13.10;99.90;;;;;;5099618;28;20053;-56
2023/07/06 00:28:35;;;;;;;11.20;6.05;;;13.10;99.90;;;;;;5098879;28;20067;-56
2023/07/06 00:31:10;;;;;;;12.02;6.28;;;13.00;99.90;;;;;;5101418;28;20043;-56
2023/07/06 00:33:39;;;;;;;7.75;5.97;;;13.00;99.90;;;;;;5100892;28;20055;-57
2023/07/06 00:36:05;;;;;;;7.65;5.90;;;13.00;99.90;;;;;;5104845;28;20051;-55
2023/07/06 00:38:30;;;;;;;7.70;6.43;;;13.00;99.90;;;;;;5102027;28;20048;-56
2023/07/06 00:40:57;;;;;;;9.02;5.80;;;12.90;99.90;;;;;;5103696;28;20032;-57
2023/07/06 00:43:49;;;;;;;12.23;5.80;;;12.90;99.90;;;;;;5104757;28;20036;-56
2023/07/06 00:46:15;;;;;;;13.38;6.18;;;12.90;99.90;;;;;;5101808;28;20052;-57
2023/07/06 00:48:46;;;;;;;9.00;6.50;;;12.90;99.90;;;;;;5104535;28;20036;-57
2023/07/06 00:51:16;;;;;;;10.77;6.53;;;12.90;99.90;;;;;;5102517;28;20044;-56
2023/07/06 00:53:48;;;;;;;11.50;6.28;;;12.80;99.90;;;;;;5102683;28;20079;-56
2023/07/06 00:56:23;;;;;;;14.88;6.82;;;12.80;99.90;;;;;;5104517;28;20041;-55
2023/07/06 00:58:52;;;;;;;9.65;6.95;;;12.80;99.90;;;;;;5101702;28;20036;-57
2023/07/06 01:01:21;;;;;;;11.50;6.55;;;12.70;99.90;;;;;;5104310;28;20988;-57
2023/07/06 01:03:52;;;;;;;13.60;6.97;;;12.70;99.90;;;;;;5101636;28;20052;-56
2023/07/06 01:06:39;;;;;;;13.80;6.88;;;12.70;99.90;;;;;;5102625;28;20735;-56
2023/07/06 01:09:05;;;;;;;9.90;6.38;;;12.70;99.90;;;;;;5104279;28;20135;-56
2023/07/06 01:11:33;;;;;;;13.77;6.85;;;12.60;99.90;;;;;;5099932;28;20048;-56
2023/07/06 01:14:00;;;;;;;10.20;7.18;;;12.60;99.90;;;;;;5104287;28;20062;-56
2023/07/06 01:17:00;;;;;;;12.02;6.85;;;12.60;99.90;;;;;;5100112;28;20044;-57
2023/07/06 01:19:50;;;;;;;10.38;7.80;;;12.60;99.90;;;;;;5103044;28;20044;-56
2023/07/06 01:22:42;;;;;;;10.43;7.05;;;12.50;99.90;;;;;;5104194;28;20449;-57
2023/07/06 01:25:37;;;;;;;10.77;7.32;;;12.50;99.90;;;;;;5069050;28;20128;-57
2023/07/06 01:28:09;;;;;;;16.65;7.53;;;12.50;99.90;;;;;;5102826;28;20092;-56
2023/07/06 01:30:54;;;;;;;11.73;7.90;;;12.50;99.90;;;;;;5103987;28;20051;-57
2023/07/06 01:33:32;;;;;;;9.18;6.97;;;12.50;99.90;;;;;;5099713;28;20051;-57
2023/07/06 01:36:05;;;;;;;11.23;7.70;;;12.50;99.90;;;;;;5085712;28;20126;-57
2023/07/06 01:38:31;;;;;;;11.88;7.60;;;12.50;99.90;;;;;;5102253;28;20055;-57
2023/07/06 01:40:59;;;;;;;10.93;7.43;;;12.50;99.90;;;;;;5083998;28;20044;-57
2023/07/06 01:43:26;;;;;;;12.93;8.27;;;12.60;99.90;;;;;;5102918;28;20172;-56
2023/07/06 01:45:53;;;;;;;12.32;7.72;;;12.60;99.90;;;;;;5100943;28;20051;-57
2023/07/06 01:48:20;;;;;;;12.43;8.25;;;12.60;99.90;;;;;;5102191;28;20329;-57
2023/07/06 01:50:52;;;;;;;14.95;8.02;;;12.50;99.90;;;;;;5100818;28;20028;-57
2023/07/06 01:53:38;;;;;;;14.13;8.25;;;12.50;99.90;;;;;;5103547;28;20066;-56
2023/07/06 01:56:25;;;;;;;14.05;8.52;;;12.50;99.90;;;;;;5092419;28;20108;-55
2023/07/06 01:59:00;;;;;;;12.68;8.50;;;12.60;99.90;;;;;;5098984;28;20062;-56
2023/07/06 02:01:31;;;;;;;17.48;8.57;;;12.50;99.90;;;;;;5103268;28;20040;-57
2023/07/06 02:03:58;;;;;;;13.65;8.23;;;12.60;99.90;;;;;;5100991;28;20032;-56
2023/07/06 02:06:24;;;;;;;12.90;8.43;;;12.60;99.90;;;;;;5102346;28;20504;-56
2023/07/06 02:08:51;;;;;;;16.05;8.27;;;12.60;99.90;;;;;;5102675;28;20052;-56
2023/07/06 02:11:21;;;;;;;15.15;8.48;;;12.60;99.90;;;;;;5100653;28;20036;-56
2023/07/06 02:13:47;;;;;;;14.73;8.23;;;12.70;99.90;;;;;;5101992;28;20040;-56
2023/07/06 02:16:15;;;;;;;13.02;8.38;;;12.70;99.90;;;;;;5100196;28;20048;-57
2023/07/06 02:18:41;;;;;;;12.25;8.02;;;12.70;99.90;;;;;;5103233;28;20044;-57
2023/07/06 02:21:07;;;;;;;14.85;8.75;;;12.70;99.90;;;;;;5100549;28;20043;-56
2023/07/06 02:23:32;;;;;;;13.43;8.63;;;12.70;99.90;;;;;;5102319;28;20048;-56
2023/07/06 02:25:58;;;;;;;12.95;8.18;;;12.70;99.90;;;;;;5100903;28;20099;-56
2023/07/06 02:28:24;;;;;;;17.88;8.20;;;12.70;99.90;;;;;;5100631;28;20039;-57
2023/07/06 02:30:52;;;;;;;12.77;8.18;;;12.70;99.90;;;;;;5102697;28;20079;-57
2023/07/06 02:33:18;;;;;;;14.52;8.55;;;12.70;99.90;;;;;;5099839;28;20047;-56
2023/07/06 02:35:45;;;;;;;14.30;8.23;;;12.70;99.90;;;;;;5102703;28;20039;-56
2023/07/06 02:38:16;;;;;;;11.93;8.07;;;12.70;99.90;;;;;;5099965;28;20054;-55
2023/07/06 02:40:42;;;;;;;16.00;8.32;;;12.70;99.90;;;;;;5101749;28;20043;-56
2023/07/06 02:43:08;;;;;;;16.80;8.88;;;12.70;99.90;;;;;;5101810;28;20040;-56
2023/07/06 02:45:35;;;;;;;13.18;8.65;;;12.70;99.90;;;;;;5081961;28;20181;-57
2023/07/06 02:48:01;;;;;;;13.88;8.32;;;12.70;99.90;;;;;;5102556;28;20499;-57
2023/07/06 02:50:28;;;;;;;14.13;8.45;;;12.70;99.90;;;;;;5098220;28;20109;-57
2023/07/06 02:52:54;;;;;;;17.10;9.18;;;12.70;99.90;;;;;;5102508;28;20036;-56
2023/07/06 02:55:22;;;;;;;16.70;8.90;;;12.70;99.90;;;;;;5081245;28;20036;-56
2023/07/06 02:57:47;;;;;;;17.63;8.93;;;12.70;99.90;;;;;;5101777;28;20044;-56
2023/07/06 03:00:16;;;;;;;20.73;9.13;;;12.70;99.90;;;;;;5101614;28;20038;-56
2023/07/06 03:02:43;;;;;;;14.52;9.00;;;12.60;99.90;;;;;;5098897;28;20807;-58
2023/07/06 03:05:10;;;;;;;20.52;10.02;;;12.60;99.90;;;;;;5102119;28;20048;-56
2023/07/06 03:07:35;;;;;;;13.63;9.05;;;12.60;99.90;;;;;;5097740;28;20060;-57
2023/07/06 03:10:02;;;;;;;15.55;9.45;;;12.60;99.90;;;;;;5102018;28;20050;-57
2023/07/06 03:12:33;;;;;;;16.50;9.55;;;12.60;99.90;;;;;;5099483;28;20060;-56
2023/07/06 03:15:06;;;;;;;16.08;8.63;;;12.60;99.90;;;;;;5101385;28;20044;-57
2023/07/06 03:17:32;;;;;;;14.00;9.38;;;12.60;99.90;;;;;;5101835;28;20123;-56
2023/07/06 03:19:58;;;;;;;17.63;9.48;;;12.60;99.90;;;;;;5097947;28;20048;-57
2023/07/06 03:22:24;;;;;;;15.65;9.30;;;12.60;99.90;;;;;;5102015;28;20040;-57
2023/07/06 03:24:50;;;;;;;19.92;9.82;;;12.60;99.90;;;;;;5099098;28;20581;-57
2023/07/06 03:27:15;;;;;;;14.25;8.88;;;12.60;99.90;;;;;;5101914;28;20044;-57
2023/07/06 03:29:41;;;;;;;20.40;9.90;;;12.60;99.90;;;;;;5098335;28;20193;-57
2023/07/06 03:32:08;;;;;;;19.67;9.90;;;12.60;99.90;;;;;;5099868;28;20044;-58
2023/07/06 03:34:33;;;;;;;19.48;9.00;;;12.60;99.90;;;;;;5101409;28;20044;-57
2023/07/06 03:37:04;;;;;;;20.70;9.43;;;12.60;99.90;;;;;;5099430;28;20096;-57
2023/07/06 03:39:30;;;;;;;20.60;9.32;;;12.60;99.90;;;;;;5099991;28;20047;-57
2023/07/06 03:41:57;;;;;;;17.63;9.77;;;12.70;99.90;;;;;;5099055;28;20040;-57
2023/07/06 03:44:24;;;;;;;18.33;9.32;;;12.70;99.90;;;;;;5100199;28;20048;-57
2023/07/06 03:46:49;;;;;;;17.77;9.02;;;12.70;99.90;;;;;;5099431;28;20485;-57
2023/07/06 03:49:15;;;;;;;17.17;8.80;;;12.70;99.90;;;;;;5101031;28;20043;-57
2023/07/06 03:51:45;;;;;;;17.95;9.40;;;12.80;99.90;;;;;;5099990;28;20051;-56
2023/07/06 03:54:12;;;;;;;21.80;9.48;;;12.70;99.90;;;;;;5099009;28;20048;-57
2023/07/06 03:56:38;;;;;;;17.60;9.60;;;12.80;99.90;;;;;;5100387;28;20036;-57
2023/07/06 03:59:05;;;;;;;17.58;9.40;;;12.80;99.90;;;;;;5098614;28;20047;-57
2023/07/06 04:01:31;;;;;;;18.42;9.35;;;12.70;99.90;;;;;;5101473;28;20044;-56
2023/07/06 04:03:58;;;;;;;15.15;8.90;;;12.80;99.90;;;;;;5099152;28;20100;-56
2023/07/06 04:06:25;;;;;;;16.08;9.00;;;12.80;99.90;;;;;;5101410;28;20060;-57
2023/07/06 04:08:52;;;;;;;17.38;9.38;;;12.80;99.90;;;;;;5104920;28;20048;-57
2023/07/06 04:11:18;;;;;;;19.17;9.60;;;12.80;99.90;;;;;;5102800;28;20543;-57
2023/07/06 04:13:44;;;;;;;17.83;8.88;;;12.80;99.90;;;;;;5105478;28;20550;-57
2023/07/06 04:16:17;;;;;;;20.83;8.98;;;12.80;99.90;;;;;;5102819;28;20060;-57
2023/07/06 04:18:44;;;;;;;20.77;9.60;;;12.80;99.90;;;;;;5104149;28;20050;-58
2023/07/06 04:21:18;;;;;;;18.95;10.15;;;12.80;99.90;;;;;;5085141;28;20047;-56
2023/07/06 04:23:47;;;;;;;15.50;9.48;;;12.80;99.90;;;;;;5104029;28;20044;-57
2023/07/06 04:26:14;;;;;;;18.73;9.57;;;12.70;99.90;;;;;;5105267;28;20059;-56
2023/07/06 04:28:40;;;;;;;17.73;9.10;;;12.80;99.90;;;;;;5102300;28;20051;-57
2023/07/06 04:31:06;;;;;;;18.25;9.48;;;12.70;99.90;;;;;;5105020;28;20071;-58
2023/07/06 04:33:32;;;;;;;19.75;9.82;;;12.80;99.90;;;;;;5102166;28;20491;-57
2023/07/06 04:35:58;;;;;;;18.80;9.57;;;12.80;99.90;;;;;;5086698;28;20048;-57
2023/07/06 04:38:26;;;;;;;17.92;8.90;;;12.80;99.90;;;;;;5101937;28;20047;-56
2023/07/06 04:40:52;;;;;;;16.65;8.65;;;12.80;99.90;;;;;;5103433;28;20069;-57
2023/07/06 04:43:18;;;;;;;17.92;9.48;;;12.80;99.90;;;;;;5105003;28;20104;-56
2023/07/06 04:45:45;;;;;;;15.23;9.15;;;12.90;99.90;;;;;;5101883;28;20044;-57
2023/07/06 04:48:10;;;;;;;20.95;9.82;;;12.90;99.90;;;;;;5103591;28;20040;-57
2023/07/06 04:50:40;;;;;;;17.45;10.00;;;12.90;99.90;;;;;;5100585;28;20036;-56
2023/07/06 04:53:08;;;;;;;18.58;8.93;;;13.00;99.90;;;;;;5103409;28;20115;-56
2023/07/06 04:55:34;;;;;;;18.70;10.13;;;13.00;99.90;;;;;;5103164;28;20032;-56
2023/07/06 04:58:01;;;;;;;25.27;9.40;;;13.10;99.90;;;;;;5103249;28;20039;-57
2023/07/06 05:00:29;;;;;;;18.65;9.50;;;13.20;99.90;;;;;;5103254;28;20047;-57
2023/07/06 05:03:09;;;;;;;20.20;9.70;;;13.20;99.90;;;;;;5101490;28;20063;-57
2023/07/06 05:05:46;;;;;;;17.70;9.52;;;13.30;99.90;;;;;;5103237;28;20040;-56
2023/07/06 05:08:15;;;;;;;20.50;9.95;;;13.30;99.90;;;;;;5102025;28;20169;-56
2023/07/06 05:10:46;;;;;;;20.83;10.02;;;13.40;99.90;;;;;;5103544;28;20036;-57
2023/07/06 05:13:13;;;;;;;23.48;10.05;;;13.50;99.90;;;;;;5104284;28;20141;-56
2023/07/06 05:15:38;;;;;;;20.52;9.75;;;13.50;99.90;;;;;;5101502;28;20050;-57
2023/07/06 05:18:06;;;;;;;21.40;9.82;;;13.60;99.90;;;;;;5102923;28;20071;-57
2023/07/06 05:20:32;;;;;;;20.58;9.98;;;13.70;99.90;;;;;;5100070;28;20063;-56
2023/07/06 05:22:58;;;;;;;21.50;10.27;;;13.80;99.90;;;;;;5104163;28;20044;-57
2023/07/06 05:25:26;;;;;;;26.08;9.77;;;13.90;99.90;;;;;;5100561;28;20063;-57
2023/07/06 05:27:52;;;;;;;16.33;9.55;;;13.90;99.90;;;;;;5102932;28;20527;-58
2023/07/06 05:30:19;;;;;;;19.95;9.55;;;14.00;99.90;;;;;;5103622;28;20036;-56
2023/07/06 05:32:44;;;;;;;18.58;9.77;;;14.00;99.90;;;;;;5101100;28;20096;-57
2023/07/06 05:35:10;;;;;;;23.10;9.75;;;14.00;99.90;;;;;;5104052;28;20063;-57
2023/07/06 05:37:36;;;;;;;27.27;9.48;;;14.00;99.90;;;;;;5100991;28;20432;-57
2023/07/06 05:40:04;;;;;;;17.38;9.32;;;14.00;99.90;;;;;;5103524;28;20044;-57
2023/07/06 05:42:33;;;;;;;17.45;9.52;;;14.10;99.90;;;;;;5100224;28;20100;-56
2023/07/06 05:44:59;;;;;;;20.52;9.73;;;14.10;99.90;;;;;;5102812;28;20516;-57
2023/07/06 05:47:24;;;;;;;21.83;10.05;;;14.20;99.90;;;;;;5103232;28;20429;-56
2023/07/06 05:49:50;;;;;;;22.00;9.40;;;14.20;99.90;;;;;;5101087;28;20100;-57
2023/07/06 05:52:17;;;;;;;24.45;10.07;;;14.30;99.90;;;;;;5103491;28;20044;-57
2023/07/06 05:54:42;;;;;;;17.20;8.82;;;14.30;99.90;;;;;;5100482;28;20044;-57
2023/07/06 05:57:09;;;;;;;20.48;9.70;;;14.30;99.90;;;;;;5103500;28;20055;-57
2023/07/06 05:59:41;;;;;;;22.98;9.50;;;14.50;99.90;;;;;;5099829;28;20430;-56
2023/07/06 06:02:09;;;;;;;23.15;9.15;;;14.60;99.90;;;;;;5102650;28;20040;-56
2023/07/06 06:04:37;;;;;;;18.30;9.57;;;14.60;99.90;;;;;;5103191;28;20044;-54
2023/07/06 06:07:06;;;;;;;27.00;9.60;;;14.70;99.90;;;;;;5100428;28;20127;-57
2023/07/06 06:09:32;;;;;;;20.05;8.98;;;14.80;99.90;;;;;;5101386;28;20063;-56
2023/07/06 06:11:58;;;;;;;24.08;9.07;;;14.80;99.90;;;;;;5100301;28;20188;-57
2023/07/06 06:14:24;;;;;;;22.17;9.13;;;14.80;99.90;;;;;;5101841;28;20473;-56
2023/07/06 06:16:50;;;;;;;20.48;9.95;;;15.00;99.90;;;;;;5101168;28;20040;-57
2023/07/06 06:19:16;;;;;;;21.23;9.20;;;14.90;99.90;;;;;;5102384;28;20063;-57
2023/07/06 06:21:42;;;;;;;26.50;9.13;;;14.90;99.90;;;;;;5101230;28;20389;-57
2023/07/06 06:24:09;;;;;;;20.92;9.80;;;15.00;99.90;;;;;;5100396;28;20419;-57
2023/07/06 06:26:36;;;;;;;21.75;9.75;;;15.10;99.90;;;;;;5101568;28;20039;-57
2023/07/06 06:29:03;;;;;;;22.00;9.73;;;15.20;99.90;;;;;;5099686;28;20072;-57
2023/07/06 06:31:29;;;;;;;20.13;9.43;;;15.40;99.90;;;;;;5101378;28;20062;-57
2023/07/06 06:33:55;;;;;;;21.92;9.23;;;15.50;99.90;;;;;;5100356;28;20382;-57
2023/07/06 06:36:22;;;;;;;20.13;8.98;;;15.70;99.90;;;;;;5100793;28;20032;-57
2023/07/06 06:38:48;;;;;;;21.30;9.00;;;15.70;99.90;;;;;;5102332;28;20048;-56
2023/07/06 06:41:15;;;;;;;23.90;9.00;;;15.90;99.90;;;;;;5098687;28;20035;-57
2023/07/06 06:43:43;;;;;;;18.70;8.68;;;16.00;99.90;;;;;;5102599;28;20040;-57
2023/07/06 06:46:11;;;;;;;17.52;8.43;;;16.20;99.90;;;;;;5099727;28;20047;-58
2023/07/06 06:48:39;;;;;;;19.27;8.55;;;16.30;99.90;;;;;;5102423;28;20044;-57
2023/07/06 06:51:08;;;;;;;15.98;8.48;;;16.40;99.90;;;;;;5100236;28;20089;-57
2023/07/06 06:53:34;;;;;;;22.83;8.50;;;16.60;99.90;;;;;;5101404;28;20040;-57
2023/07/06 06:56:02;;;;;;;19.45;8.27;;;16.70;99.90;;;;;;5101909;28;20119;-56
2023/07/06 06:58:28;;;;;;;20.98;8.55;;;16.80;99.90;;;;;;5098068;28;20119;-57
2023/07/06 07:00:58;;;;;;;19.30;8.63;;;16.90;99.90;;;;;;5102162;28;20055;-57
2023/07/06 07:03:25;;;;;;;17.45;8.15;;;17.10;99.90;;;;;;5099218;28;20048;-57
2023/07/06 07:06:11;;;;;;;24.95;8.35;;;17.20;99.90;;;;;;5100500;28;20039;-57
2023/07/06 07:08:39;;;;;;;18.85;7.60;;;17.30;99.90;;;;;;5100113;28;20089;-56
2023/07/06 07:11:06;;;;;;;17.20;6.95;;;17.30;99.90;;;;;;5099565;28;20056;-57
2023/07/06 07:13:32;;;;;;;20.63;7.80;;;17.40;99.90;;;;;;5102053;28;20059;-57
2023/07/06 07:15:58;;;;;;;16.08;7.80;;;17.40;99.90;;;;;;5098000;28;20048;-57
2023/07/06 07:18:25;;;;;;;18.35;7.85;;;17.50;99.90;;;;;;5100621;28;20052;-57
2023/07/06 07:20:51;;;;;;;18.45;7.80;;;17.50;99.90;;;;;;5081017;28;20044;-56
2023/07/06 07:23:21;;;;;;;15.52;7.30;;;17.40;99.90;;;;;;5101635;28;20062;-57
2023/07/06 07:25:48;;;;;;;15.95;7.80;;;17.30;99.90;;;;;;5101067;28;20123;-57
2023/07/06 07:28:16;;;;;;;20.50;8.20;;;17.20;99.90;;;;;;5099852;28;20040;-56
2023/07/06 07:31:02;;;;;;;19.95;8.13;;;17.10;99.90;;;;;;5101679;28;20056;-56
2023/07/06 07:33:28;;;;;;;17.67;8.43;;;17.10;99.90;;;;;;5098665;28;20044;-57
2023/07/06 07:35:57;;;;;;;19.75;8.20;;;17.10;99.90;;;;;;5101646;28;20036;-57
2023/07/06 07:38:24;;;;;;;20.63;8.82;;;17.10;99.90;;;;;;5099071;28;20404;-56
2023/07/06 07:40:58;;;;;;;19.58;8.38;;;17.10;99.90;;;;;;5098178;28;20530;-57
2023/07/06 07:43:28;;;;;;;14.80;7.72;;;17.00;99.90;;;;;;5100364;28;20079;-57
2023/07/06 07:46:00;;;;;;;20.98;8.40;;;17.00;99.90;;;;;;5098739;28;20040;-57
2023/07/06 07:48:26;;;;;;;19.92;8.73;;;16.90;99.90;;;;;;5100174;28;20077;-57
2023/07/06 07:50:56;;;;;;;17.27;8.32;;;16.90;99.90;;;;;;5099013;28;20059;-57
2023/07/06 07:53:24;;;;;;;18.13;7.85;;;17.10;99.90;;;;;;5099625;28;20105;-57
2023/07/06 07:55:52;;;;;;;15.65;7.90;;;17.30;99.90;;;;;;5100999;28;20048;-57
2023/07/06 07:58:17;;;;;;;14.95;7.10;;;17.50;99.90;;;;;;5097602;28;20503;-57
2023/07/06 08:00:57;;;;;;;15.93;7.10;;;17.80;99.90;;;;;;5100142;28;20037;-57
2023/07/06 08:03:24;;;;;;;12.30;6.85;;;18.20;99.90;;;;;;5097149;28;20040;-57
2023/07/06 08:06:03;;;;;;;19.98;7.47;;;18.50;99.90;;;;;;5101501;28;20274;-57
2023/07/06 08:08:32;;;;;;;17.50;7.20;;;18.60;99.90;;;;;;5100191;28;20062;-57
2023/07/06 08:11:04;;;;;;;16.23;7.45;;;18.70;99.90;;;;;;5099379;28;20032;-57
2023/07/06 08:13:31;;;;;;;14.77;7.30;;;18.70;99.90;;;;;;5101362;28;20082;-57
2023/07/06 08:15:57;;;;;;;17.27;7.10;;;18.50;99.90;;;;;;5080375;28;20040;-57
2023/07/06 08:18:25;;;;;;;14.02;6.20;;;18.60;99.90;;;;;;5100278;28;20262;-57
2023/07/06 08:20:53;;;;;;;15.88;6.88;;;18.70;99.90;;;;;;5080636;28;20040;-56
2023/07/06 08:23:21;;;;;;;17.85;7.35;;;18.90;99.90;;;;;;5101103;28;20479;-57
2023/07/06 08:25:48;;;;;;;15.02;6.78;;;19.00;99.90;;;;;;5100348;28;20047;-56
2023/07/06 08:28:14;;;;;;;11.40;5.82;;;19.20;99.90;;;;;;5097699;28;20566;-58
2023/07/06 08:30:42;;;;;;;15.25;6.13;;;19.50;99.90;;;;;;5101349;28;20036;-57
2023/07/06 08:33:10;;;;;;;12.48;6.15;;;19.70;99.90;;;;;;5098090;28;20419;-57
2023/07/06 08:35:44;;;;;;;16.85;6.47;;;19.90;99.90;;;;;;5101051;28;20051;-58
2023/07/06 08:38:10;;;;;;;12.15;6.10;;;20.00;99.90;;;;;;5098937;28;20040;-57
2023/07/06 08:40:37;;;;;;;13.30;6.35;;;19.90;99.90;;;;;;5100112;28;20044;-58
2023/07/06 08:43:07;;;;;;;8.75;5.53;;;19.80;99.90;;;;;;5100577;28;20071;-57
2023/07/06 08:45:43;;;;;;;10.18;5.57;;;19.70;99.90;;;;;;5098415;28;20051;-57
2023/07/06 08:48:17;;;;;;;12.95;4.82;;;19.70;99.90;;;;;;5101143;28;20079;-57
2023/07/06 08:50:48;;;;;;;12.02;5.32;;;19.60;99.90;;;;;;5098078;28;20117;-58
2023/07/06 08:53:15;;;;;;;14.05;4.60;;;19.70;99.90;;;;;;5101762;28;20040;-58
2023/07/06 08:55:42;;;;;;;6.20;3.65;;;20.00;99.90;;;;;;5103700;28;20051;-57
2023/07/06 08:58:14;;;;;;;10.13;4.90;;;20.20;99.90;;;;;;5102610;28;20069;-57
2023/07/06 09:00:40;;;;;;;12.68;4.45;;;20.20;99.90;;;;;;5103390;28;20031;-57
2023/07/06 09:03:09;;;;;;;12.52;3.80;;;20.10;99.90;;;;;;5101606;28;20046;-57
2023/07/06 09:05:42;;;;;;;12.80;3.83;;;19.90;99.90;;;;;;5104422;28;20097;-57
2023/07/06 09:08:13;;;;;;;8.75;3.80;;;19.80;99.90;;;;;;5102007;28;20527;-57
2023/07/06 09:10:38;;;;;;;8.73;4.22;;;19.80;99.90;;;;;;5103041;28;20059;-57
2023/07/06 09:13:36;;;;;;;10.77;3.40;;;19.60;99.90;;;;;;5104149;28;20040;-58
2023/07/06 09:16:03;;;;;;;12.70;4.35;;;19.40;99.90;;;;;;5091641;28;20048;-57
2023/07/06 09:18:30;;;;;;;8.85;3.65;;;19.30;99.90;;;;;;5104216;28;20036;-57
2023/07/06 09:21:02;;;;;;;8.73;3.58;;;19.20;99.90;;;;;;5101815;28;20044;-57
2023/07/06 09:23:27;;;;;;;7.60;3.90;;;19.30;99.90;;;;;;5103081;28;20104;-58
2023/07/06 09:25:54;;;;;;;7.55;3.75;;;19.60;99.90;;;;;;5085567;28;20070;-57
2023/07/06 09:28:29;;;;;;;8.48;4.03;;;19.70;99.90;;;;;;5100141;28;20047;-58
2023/07/06 09:31:18;;;;;;;8.32;3.42;;;19.70;99.90;;;;;;5103906;28;20065;-58
2023/07/06 09:33:47;;;;;;;9.68;4.20;;;19.80;99.90;;;;;;5101431;28;20040;-57
2023/07/06 09:36:19;;;;;;;10.25;3.80;;;19.80;99.90;;;;;;5103273;28;20044;-58
2023/07/06 09:38:45;;;;;;;8.77;3.40;;;19.70;99.90;;;;;;5085377;28;20043;-57
2023/07/06 09:41:27;;;;;;;12.25;3.47;;;19.70;99.90;;;;;;5100986;28;20078;-58
2023/07/06 09:44:03;;;;;;;8.23;3.05;;;19.60;99.90;;;;;;5102268;28;20040;-58
2023/07/06 09:46:35;;;;;;;4.60;2.75;;;19.60;99.90;;;;;;5100932;28;20048;-58
2023/07/06 09:49:02;;;;;;;9.27;3.90;;;19.70;99.90;;;;;;5101787;28;20513;-58
2023/07/06 09:51:36;;;;;;;11.40;4.45;;;19.80;99.90;;;;;;5102976;28;20044;-57
2023/07/06 09:54:23;;;;;;;9.98;3.85;;;19.80;99.90;;;;;;5099765;28;20225;-57
2023/07/06 09:56:49;;;;;;;8.10;3.92;;;19.80;99.90;;;;;;5103568;28;20051;-58
2023/07/06 09:59:15;;;;;;;13.45;3.83;;;19.70;99.90;;;;;;5100528;28;20071;-57
2023/07/06 10:01:48;;;;;;;6.68;3.42;;;19.50;99.90;;;;;;5103501;28;20078;-57
2023/07/06 10:04:35;;;;;;;11.95;3.38;;;19.40;99.90;;;;;;5101793;28;20044;-57
2023/07/06 10:07:23;;;;;;;7.82;3.35;;;19.40;99.90;;;;;;5098792;28;20074;-58
2023/07/06 10:10:06;;;;;;;10.30;3.50;;;19.50;99.90;;;;;;5084568;28;20040;-58
2023/07/06 10:12:39;;;;;;;10.00;3.63;;;19.50;99.90;;;;;;5100109;28;20066;-58
2023/07/06 10:15:14;;;;;;;7.95;3.47;;;19.50;99.90;;;;;;5101552;28;20036;-58
2023/07/06 10:17:45;;;;;;;14.03;3.90;;;19.50;99.90;;;;;;5103215;28;20044;-58
2023/07/06 10:20:19;;;;;;;9.18;3.45;;;19.40;99.90;;;;;;5100322;28;20046;-58
2023/07/06 10:22:56;;;;;;;10.55;3.53;;;19.40;99.90;;;;;;5101847;28;20462;-58
2023/07/06 10:25:27;;;;;;;10.60;3.50;;;19.40;99.90;;;;;;5101127;28;20074;-58
2023/07/06 10:28:03;;;;;;;8.02;3.50;;;19.40;99.90;;;;;;5101386;28;20115;-58
2023/07/06 10:30:35;;;;;;;7.65;3.40;;;19.60;99.90;;;;;;5102985;28;20032;-58
2023/07/06 10:33:10;;;;;;;8.30;3.33;;;19.70;99.90;;;;;;5099843;28;20040;-58
2023/07/06 10:35:45;;;;;;;5.75;2.92;;;19.80;99.90;;;;;;5102945;28;20443;-59
2023/07/06 10:38:11;;;;;;;6.78;3.10;;;19.80;99.90;;;;;;5099337;28;20044;-57
2023/07/06 10:40:37;;;;;;;6.88;2.58;;;19.90;99.90;;;;;;5101384;28;20043;-58
2023/07/06 10:43:12;;;;;;;6.88;2.88;;;19.90;99.90;;;;;;5101488;28;20040;-57
2023/07/06 10:45:43;;;;;;;6.00;2.60;;;20.00;99.90;;;;;;5099492;28;20054;-58
2023/07/06 10:48:21;;;;;;;9.80;2.53;;;20.00;99.90;;;;;;5102532;28;20066;-58
2023/07/06 10:50:49;;;;;;;4.68;2.25;;;20.10;99.90;;;;;;5099586;28;20112;-58
2023/07/06 10:53:34;;;;;;;10.55;2.40;;;20.00;99.90;;;;;;5083693;28;20523;-56
2023/07/06 10:56:02;;;;;;;7.22;2.15;;;20.00;99.90;;;;;;5102334;28;20040;-57
2023/07/06 10:58:34;;;;;;;6.32;2.30;;;20.00;99.90;;;;;;5099355;28;20106;-59
2023/07/06 11:01:07;;;;;;;5.63;2.20;;;20.00;99.90;;;;;;5102161;28;20111;-60
2023/07/06 11:03:33;;;;;;;11.45;2.40;;;20.00;99.90;;;;;;5099348;28;20050;-58
2023/07/06 11:06:06;;;;;;;12.82;2.90;;;20.00;99.90;;;;;;5102331;28;20118;-59
2023/07/06 11:09:04;;;;;;;8.30;2.67;;;20.00;99.90;;;;;;5101308;28;20048;-57
2023/07/06 11:11:34;;;;;;;9.50;2.80;;;20.00;99.90;;;;;;5098725;28;20492;-59
2023/07/06 11:14:38;;;;;;;8.55;3.13;;;20.10;99.90;;;;;;5102332;28;20037;-59
2023/07/06 11:17:18;;;;;;;21.15;4.40;;;20.30;99.90;;;;;;5101093;28;20040;-57
2023/07/06 11:20:07;;;;;;;9.93;3.10;;;20.50;99.90;;;;;;5098082;28;20032;-58
2023/07/06 11:22:33;;;;;;;9.68;3.60;;;20.40;99.90;;;;;;5102149;28;20096;-59
2023/07/06 11:25:04;;;;;;;18.33;3.50;;;20.80;99.90;;;;;;5099046;28;20040;-58
2023/07/06 11:27:37;;;;;;;5.25;2.63;;;20.90;99.90;;;;;;5101450;28;20409;-59
2023/07/06 11:30:31;;;;;;;10.88;2.83;;;20.90;99.90;;;;;;5101213;28;20521;-57
2023/07/06 11:33:13;;;;;;;8.80;3.60;;;20.90;99.90;;;;;;5098673;28;20043;-59
2023/07/06 11:36:06;;;;;;;8.80;3.42;;;20.90;99.90;;;;;;5101786;28;20040;-59
2023/07/06 11:38:44;;;;;;;4.60;2.92;;;20.80;99.90;;;;;;5100899;28;20044;-58
2023/07/06 11:41:25;;;;;;;10.63;3.60;;;20.90;99.90;;;;;;5097592;28;20070;-58
2023/07/06 11:44:03;;;;;;;11.55;3.45;;;21.00;99.90;;;;;;5101620;28;20044;-59
2023/07/06 11:47:02;;;;;;;9.52;3.85;;;21.10;99.90;;;;;;5097347;28;20063;-58
2023/07/06 11:49:44;;;;;;;6.43;3.20;;;21.10;99.90;;;;;;5098216;28;20044;-59
2023/07/06 11:52:20;;;;;;;7.07;3.10;;;21.00;99.90;;;;;;5101681;28;20036;-58
2023/07/06 11:55:04;;;;;;;5.90;3.28;;;20.90;99.90;;;;;;5098695;28;20044;-58
2023/07/06 11:57:43;;;;;;;6.90;3.15;;;20.80;99.90;;;;;;5101146;28;20610;-59
2023/07/06 12:03:08;;;;;;;7.85;3.25;;;20.60;99.90;;;;;;5098704;28;20064;-59
2023/07/06 12:05:40;;;;;;;6.93;3.03;;;20.40;99.90;;;;;;5101308;28;20040;-58
2023/07/06 12:08:29;;;;;;;6.75;2.90;;;20.30;99.90;;;;;;5099301;28;20099;-58
2023/07/06 12:11:10;;;;;;;8.77;2.88;;;20.20;99.90;;;;;;5097778;28;20046;-58
2023/07/06 12:13:48;;;;;;;6.65;3.20;;;20.10;99.90;;;;;;5101337;28;20042;-59
2023/07/06 12:16:30;;;;;;;8.23;3.15;;;20.00;99.90;;;;;;5098170;28;20100;-59
2023/07/06 12:19:04;;;;;;;5.80;2.97;;;19.90;99.90;;;;;;5099607;28;20044;-58
2023/07/06 12:21:31;;;;;;;6.85;3.50;;;19.90;99.90;;;;;;5099283;28;20056;-58
2023/07/06 12:23:59;;;;;;;7.75;3.53;;;20.00;99.90;;;;;;5098592;28;20096;-58
2023/07/06 12:26:29;;;;;;;8.57;3.40;;;20.00;99.90;;;;;;5100988;28;20040;-59
2023/07/06 12:28:57;;;;;;;7.22;2.70;;;20.00;99.90;;;;;;5100361;28;20051;-58
2023/07/06 12:31:25;;;;;;;8.40;2.80;;;20.10;99.90;;;;;;5104965;28;20059;-59
2023/07/06 12:33:56;;;;;;;8.52;2.85;;;20.10;99.90;;;;;;5102119;28;20047;-58
2023/07/06 12:36:29;;;;;;;6.72;2.67;;;20.20;99.90;;;;;;5103656;28;20071;-59
2023/07/06 12:38:56;;;;;;;7.95;2.65;;;20.30;99.90;;;;;;5103615;28;20123;-58
2023/07/06 12:41:22;;;;;;;5.38;2.65;;;20.40;99.90;;;;;;5101767;28;20048;-59
2023/07/06 12:43:49;;;;;;;7.68;3.15;;;20.50;99.90;;;;;;5104903;28;20048;-59
2023/07/06 12:46:21;;;;;;;4.38;2.55;;;20.40;99.90;;;;;;5101824;28;20050;-59
2023/07/06 12:48:52;;;;;;;8.38;2.60;;;20.40;99.90;;;;;;5104529;28;20040;-58
2023/07/06 12:51:21;;;;;;;4.65;2.28;;;20.40;99.90;;;;;;5103795;28;20040;-58
2023/07/06 12:53:49;;;;;;;7.60;3.25;;;20.30;99.90;;;;;;5102458;28;20446;-58
2023/07/06 12:56:19;;;;;;;7.38;3.22;;;20.20;99.90;;;;;;5103059;28;20059;-59
2023/07/06 12:59:19;;;;;;;9.55;3.00;;;20.20;99.90;;;;;;5101823;28;20040;-59